sensor_id;sensor_type;location;lat;lon;timestamp;P1;durP1;ratioP1;P2;durP2;ratioP2
3036;SDS011;1528;52.550;13.408;2023-08-20T00:00:04;20.20;;;18.90;;
3036;SDS011;1528;52.550;13.408;2023-08-20T00:02:51;20.87;;;19.37;;
3036;SDS011;1528;52.550;13.408;2023-08-20T00:05:40;20.60;;;19.20;;
3036;SDS011;1528;52.550;13.408;2023-08-20T00:08:26;20.43;;;18.93;;
3036;SDS011;1528;52.550;13.408;2023-08-20T00:11:13;20.27;;;18.87;;
3036;SDS011;1528;52.550;13.408;2023-08-20T00:13:58;20.10;;;18.70;;
3036;SDS011;1528;52.550;13.408;2023-08-20T00:16:45;20.50;;;19.20;;
3036;SDS011;1528;52.550;13.408;2023-08-20T00:19:31;19.93;;;18.73;;
3036;SDS011;1528;52.550;13.408;2023-08-20T00:22:17;19.87;;;18.53;;
3036;SDS011;1528;52.550;13.408;2023-08-20T00:25:03;21.20;;;19.90;;
3036;SDS011;1528;52.550;13.408;2023-08-20T00:27:51;18.87;;;17.77;;
3036;SDS011;1528;52.550;13.408;2023-08-20T00:30:37;20.33;;;19.03;;
3036;SDS011;1528;52.550;13.408;2023-08-20T00:33:23;20.70;;;19.50;;
3036;SDS011;1528;52.550;13.408;2023-08-20T00:36:09;21.50;;;20.10;;
3036;SDS011;1528;52.550;13.408;2023-08-20T00:38:54;20.47;;;19.07;;
3036;SDS011;1528;52.550;13.408;2023-08-20T00:41:40;19.07;;;17.87;;
3036;SDS011;1528;52.550;13.408;2023-08-20T00:44:27;20.40;;;19.00;;
3036;SDS011;1528;52.550;13.408;2023-08-20T00:47:13;20.50;;;19.10;;
3036;SDS011;1528;52.550;13.408;2023-08-20T00:49:59;18.67;;;17.50;;
3036;SDS011;1528;52.550;13.408;2023-08-20T00:52:45;20.03;;;18.83;;
3036;SDS011;1528;52.550;13.408;2023-08-20T00:55:31;21.30;;;19.80;;
3036;SDS011;1528;52.550;13.408;2023-08-20T00:58:16;20.07;;;18.77;;
3036;SDS011;1528;52.550;13.408;2023-08-20T01:01:03;20.90;;;19.60;;
3036;SDS011;1528;52.550;13.408;2023-08-20T01:03:49;21.03;;;19.83;;
3036;SDS011;1528;52.550;13.408;2023-08-20T01:06:39;20.70;;;19.40;;
3036;SDS011;1528;52.550;13.408;2023-08-20T01:09:35;20.80;;;19.40;;
3036;SDS011;1528;52.550;13.408;2023-08-20T01:12:28;19.13;;;17.80;;
3036;SDS011;1528;52.550;13.408;2023-08-20T01:15:14;19.70;;;18.43;;
3036;SDS011;1528;52.550;13.408;2023-08-20T01:18:01;18.70;;;17.40;;
3036;SDS011;1528;52.550;13.408;2023-08-20T01:20:47;20.03;;;18.83;;
3036;SDS011;1528;52.550;13.408;2023-08-20T01:23:45;18.77;;;17.40;;
3036;SDS011;1528;52.550;13.408;2023-08-20T01:27:00;19.30;;;17.90;;
3036;SDS011;1528;52.550;13.408;2023-08-20T01:29:56;20.47;;;19.20;;
3036;SDS011;1528;52.550;13.408;2023-08-20T01:32:43;19.70;;;18.50;;
3036;SDS011;1528;52.550;13.408;2023-08-20T01:35:29;19.60;;;18.20;;
3036;SDS011;1528;52.550;13.408;2023-08-20T01:38:15;18.50;;;17.27;;
3036;SDS011;1528;52.550;13.408;2023-08-20T01:41:00;18.70;;;17.50;;
3036;SDS011;1528;52.550;13.408;2023-08-20T01:43:46;20.40;;;18.90;;
3036;SDS011;1528;52.550;13.408;2023-08-20T01:46:33;19.03;;;17.73;;
3036;SDS011;1528;52.550;13.408;2023-08-20T01:49:19;19.00;;;17.80;;
3036;SDS011;1528;52.550;13.408;2023-08-20T01:52:04;18.83;;;17.50;;
3036;SDS011;1528;52.550;13.408;2023-08-20T01:54:50;19.83;;;18.53;;
3036;SDS011;1528;52.550;13.408;2023-08-20T01:57:36;20.40;;;19.00;;
3036;SDS011;1528;52.550;13.408;2023-08-20T02:00:22;19.40;;;18.20;;
3036;SDS011;1528;52.550;13.408;2023-08-20T02:03:09;19.50;;;18.10;;
3036;SDS011;1528;52.550;13.408;2023-08-20T02:05:54;19.60;;;18.33;;
3036;SDS011;1528;52.550;13.408;2023-08-20T02:08:40;19.37;;;18.07;;
3036;SDS011;1528;52.550;13.408;2023-08-20T02:11:26;21.50;;;19.90;;
3036;SDS011;1528;52.550;13.408;2023-08-20T02:14:12;23.10;;;21.20;;
3036;SDS011;1528;52.550;13.408;2023-08-20T02:16:58;20.40;;;19.10;;
3036;SDS011;1528;52.550;13.408;2023-08-20T02:19:45;19.00;;;17.80;;
3036;SDS011;1528;52.550;13.408;2023-08-20T02:22:30;21.27;;;19.57;;
3036;SDS011;1528;52.550;13.408;2023-08-20T02:25:17;18.50;;;17.27;;
3036;SDS011;1528;52.550;13.408;2023-08-20T02:28:03;20.00;;;18.50;;
3036;SDS011;1528;52.550;13.408;2023-08-20T02:30:48;19.00;;;17.70;;
3036;SDS011;1528;52.550;13.408;2023-08-20T02:33:34;20.23;;;18.83;;
3036;SDS011;1528;52.550;13.408;2023-08-20T02:36:21;20.03;;;18.60;;
3036;SDS011;1528;52.550;13.408;2023-08-20T02:39:07;21.80;;;20.30;;
3036;SDS011;1528;52.550;13.408;2023-08-20T02:41:52;20.53;;;18.77;;
3036;SDS011;1528;52.550;13.408;2023-08-20T02:44:38;19.87;;;18.60;;
3036;SDS011;1528;52.550;13.408;2023-08-20T02:47:24;21.63;;;20.07;;
3036;SDS011;1528;52.550;13.408;2023-08-20T02:50:09;18.77;;;17.30;;
3036;SDS011;1528;52.550;13.408;2023-08-20T02:52:56;19.90;;;18.60;;
3036;SDS011;1528;52.550;13.408;2023-08-20T02:55:41;20.40;;;19.07;;
3036;SDS011;1528;52.550;13.408;2023-08-20T02:58:27;19.73;;;18.23;;
3036;SDS011;1528;52.550;13.408;2023-08-20T03:01:21;20.47;;;19.13;;
3036;SDS011;1528;52.550;13.408;2023-08-20T03:04:06;19.33;;;17.93;;
3036;SDS011;1528;52.550;13.408;2023-08-20T03:06:52;19.63;;;18.23;;
3036;SDS011;1528;52.550;13.408;2023-08-20T03:09:39;19.37;;;18.07;;
3036;SDS011;1528;52.550;13.408;2023-08-20T03:12:24;23.13;;;19.20;;
3036;SDS011;1528;52.550;13.408;2023-08-20T03:15:10;19.03;;;17.73;;
3036;SDS011;1528;52.550;13.408;2023-08-20T03:17:55;19.57;;;18.10;;
3036;SDS011;1528;52.550;13.408;2023-08-20T03:20:41;19.93;;;18.53;;
3036;SDS011;1528;52.550;13.408;2023-08-20T03:23:27;18.80;;;17.40;;
3036;SDS011;1528;52.550;13.408;2023-08-20T03:26:13;19.67;;;18.37;;
3036;SDS011;1528;52.550;13.408;2023-08-20T03:28:59;18.93;;;17.63;;
3036;SDS011;1528;52.550;13.408;2023-08-20T03:31:44;18.87;;;17.57;;
3036;SDS011;1528;52.550;13.408;2023-08-20T03:34:30;20.53;;;19.13;;
3036;SDS011;1528;52.550;13.408;2023-08-20T03:37:16;21.47;;;19.87;;
3036;SDS011;1528;52.550;13.408;2023-08-20T03:40:01;20.13;;;18.73;;
3036;SDS011;1528;52.550;13.408;2023-08-20T03:42:50;18.90;;;17.50;;
3036;SDS011;1528;52.550;13.408;2023-08-20T03:45:35;18.50;;;17.20;;
3036;SDS011;1528;52.550;13.408;2023-08-20T03:48:20;19.10;;;17.80;;
3036;SDS011;1528;52.550;13.408;2023-08-20T03:51:06;19.30;;;17.90;;
3036;SDS011;1528;52.550;13.408;2023-08-20T03:53:52;21.13;;;19.27;;
3036;SDS011;1528;52.550;13.408;2023-08-20T03:56:37;19.63;;;18.13;;
3036;SDS011;1528;52.550;13.408;2023-08-20T03:59:24;19.43;;;17.93;;
3036;SDS011;1528;52.550;13.408;2023-08-20T04:02:12;18.90;;;17.60;;
3036;SDS011;1528;52.550;13.408;2023-08-20T04:04:58;19.40;;;17.90;;
3036;SDS011;1528;52.550;13.408;2023-08-20T04:07:43;19.00;;;17.40;;
3036;SDS011;1528;52.550;13.408;2023-08-20T04:10:29;19.97;;;18.50;;
3036;SDS011;1528;52.550;13.408;2023-08-20T04:13:15;18.63;;;17.40;;
3036;SDS011;1528;52.550;13.408;2023-08-20T04:16:02;19.53;;;18.13;;
3036;SDS011;1528;52.550;13.408;2023-08-20T04:18:48;18.57;;;17.23;;
3036;SDS011;1528;52.550;13.408;2023-08-20T04:21:33;18.57;;;17.37;;
3036;SDS011;1528;52.550;13.408;2023-08-20T04:24:19;20.07;;;18.67;;
3036;SDS011;1528;52.550;13.408;2023-08-20T04:27:05;20.10;;;18.60;;
3036;SDS011;1528;52.550;13.408;2023-08-20T04:29:51;20.00;;;18.70;;
3036;SDS011;1528;52.550;13.408;2023-08-20T04:32:38;19.87;;;18.27;;
3036;SDS011;1528;52.550;13.408;2023-08-20T04:35:24;21.00;;;19.10;;
3036;SDS011;1528;52.550;13.408;2023-08-20T04:38:09;19.83;;;18.33;;
3036;SDS011;1528;52.550;13.408;2023-08-20T04:40:55;19.93;;;18.47;;
3036;SDS011;1528;52.550;13.408;2023-08-20T04:43:41;19.50;;;18.10;;
3036;SDS011;1528;52.550;13.408;2023-08-20T04:46:26;19.20;;;17.90;;
3036;SDS011;1528;52.550;13.408;2023-08-20T04:49:14;20.73;;;19.33;;
3036;SDS011;1528;52.550;13.408;2023-08-20T04:51:59;19.77;;;18.07;;
3036;SDS011;1528;52.550;13.408;2023-08-20T04:54:45;20.70;;;19.17;;
3036;SDS011;1528;52.550;13.408;2023-08-20T04:57:31;20.10;;;18.50;;
3036;SDS011;1528;52.550;13.408;2023-08-20T05:00:17;20.10;;;18.63;;
3036;SDS011;1528;52.550;13.408;2023-08-20T05:03:03;22.17;;;20.43;;
3036;SDS011;1528;52.550;13.408;2023-08-20T05:05:50;20.70;;;19.30;;
3036;SDS011;1528;52.550;13.408;2023-08-20T05:08:36;22.00;;;20.30;;
3036;SDS011;1528;52.550;13.408;2023-08-20T05:11:21;21.57;;;20.10;;
3036;SDS011;1528;52.550;13.408;2023-08-20T05:14:07;22.17;;;20.63;;
3036;SDS011;1528;52.550;13.408;2023-08-20T05:16:52;20.37;;;19.00;;
3036;SDS011;1528;52.550;13.408;2023-08-20T05:19:38;22.63;;;21.13;;
3036;SDS011;1528;52.550;13.408;2023-08-20T05:22:25;23.47;;;21.77;;
3036;SDS011;1528;52.550;13.408;2023-08-20T05:25:11;23.30;;;21.50;;
3036;SDS011;1528;52.550;13.408;2023-08-20T05:27:56;22.80;;;21.10;;
3036;SDS011;1528;52.550;13.408;2023-08-20T05:30:43;23.10;;;21.40;;
3036;SDS011;1528;52.550;13.408;2023-08-20T05:33:37;23.53;;;21.73;;
3036;SDS011;1528;52.550;13.408;2023-08-20T05:36:22;21.70;;;20.27;;
3036;SDS011;1528;52.550;13.408;2023-08-20T05:39:10;22.13;;;20.57;;
3036;SDS011;1528;52.550;13.408;2023-08-20T05:41:55;21.43;;;20.03;;
3036;SDS011;1528;52.550;13.408;2023-08-20T05:44:41;22.37;;;20.67;;
3036;SDS011;1528;52.550;13.408;2023-08-20T05:47:27;24.47;;;22.37;;
3036;SDS011;1528;52.550;13.408;2023-08-20T05:50:12;23.67;;;21.67;;
3036;SDS011;1528;52.550;13.408;2023-08-20T05:52:58;22.00;;;20.50;;
3036;SDS011;1528;52.550;13.408;2023-08-20T05:55:47;21.93;;;20.43;;
3036;SDS011;1528;52.550;13.408;2023-08-20T05:58:32;22.90;;;21.40;;
3036;SDS011;1528;52.550;13.408;2023-08-20T06:01:18;23.77;;;22.07;;
3036;SDS011;1528;52.550;13.408;2023-08-20T06:04:04;23.17;;;21.17;;
3036;SDS011;1528;52.550;13.408;2023-08-20T06:06:50;22.40;;;20.90;;
3036;SDS011;1528;52.550;13.408;2023-08-20T06:09:35;22.90;;;21.23;;
3036;SDS011;1528;52.550;13.408;2023-08-20T06:12:25;22.17;;;20.57;;
3036;SDS011;1528;52.550;13.408;2023-08-20T06:15:10;22.13;;;20.53;;
3036;SDS011;1528;52.550;13.408;2023-08-20T06:17:56;22.47;;;20.90;;
3036;SDS011;1528;52.550;13.408;2023-08-20T06:20:42;23.30;;;21.70;;
3036;SDS011;1528;52.550;13.408;2023-08-20T06:23:27;22.60;;;21.20;;
3036;SDS011;1528;52.550;13.408;2023-08-20T06:26:13;22.93;;;21.23;;
3036;SDS011;1528;52.550;13.408;2023-08-20T06:29:00;20.20;;;18.80;;
3036;SDS011;1528;52.550;13.408;2023-08-20T06:31:46;20.30;;;18.93;;
3036;SDS011;1528;52.550;13.408;2023-08-20T06:34:33;21.50;;;20.10;;
3036;SDS011;1528;52.550;13.408;2023-08-20T06:37:19;21.33;;;19.67;;
3036;SDS011;1528;52.550;13.408;2023-08-20T06:40:05;22.10;;;20.50;;
3036;SDS011;1528;52.550;13.408;2023-08-20T06:42:51;22.83;;;21.03;;
3036;SDS011;1528;52.550;13.408;2023-08-20T06:45:38;22.10;;;20.50;;
3036;SDS011;1528;52.550;13.408;2023-08-20T06:48:24;21.47;;;19.97;;
3036;SDS011;1528;52.550;13.408;2023-08-20T06:51:10;21.20;;;19.60;;
3036;SDS011;1528;52.550;13.408;2023-08-20T06:53:57;21.73;;;20.23;;
3036;SDS011;1528;52.550;13.408;2023-08-20T06:56:42;23.30;;;21.60;;
3036;SDS011;1528;52.550;13.408;2023-08-20T06:59:28;22.13;;;20.53;;
3036;SDS011;1528;52.550;13.408;2023-08-20T07:02:15;21.50;;;20.10;;
3036;SDS011;1528;52.550;13.408;2023-08-20T07:05:00;21.73;;;20.33;;
3036;SDS011;1528;52.550;13.408;2023-08-20T07:07:46;21.40;;;19.93;;
3036;SDS011;1528;52.550;13.408;2023-08-20T07:10:32;22.77;;;21.00;;
3036;SDS011;1528;52.550;13.408;2023-08-20T07:13:17;23.60;;;21.80;;
3036;SDS011;1528;52.550;13.408;2023-08-20T07:16:03;21.83;;;20.20;;
3036;SDS011;1528;52.550;13.408;2023-08-20T07:18:50;20.60;;;19.27;;
3036;SDS011;1528;52.550;13.408;2023-08-20T07:21:37;22.63;;;21.10;;
3036;SDS011;1528;52.550;13.408;2023-08-20T07:24:22;20.63;;;19.33;;
3036;SDS011;1528;52.550;13.408;2023-08-20T07:27:09;21.33;;;19.73;;
3036;SDS011;1528;52.550;13.408;2023-08-20T07:29:56;20.83;;;19.23;;
3036;SDS011;1528;52.550;13.408;2023-08-20T07:32:41;21.57;;;20.07;;
3036;SDS011;1528;52.550;13.408;2023-08-20T07:35:28;22.63;;;21.00;;
3036;SDS011;1528;52.550;13.408;2023-08-20T07:38:14;21.60;;;20.00;;
3036;SDS011;1528;52.550;13.408;2023-08-20T07:41:00;21.70;;;20.30;;
3036;SDS011;1528;52.550;13.408;2023-08-20T07:43:45;23.43;;;21.80;;
3036;SDS011;1528;52.550;13.408;2023-08-20T07:46:32;21.97;;;20.37;;
3036;SDS011;1528;52.550;13.408;2023-08-20T07:49:18;23.10;;;21.50;;
3036;SDS011;1528;52.550;13.408;2023-08-20T07:52:05;22.10;;;20.40;;
3036;SDS011;1528;52.550;13.408;2023-08-20T07:54:50;22.93;;;21.37;;
3036;SDS011;1528;52.550;13.408;2023-08-20T07:57:36;22.20;;;20.50;;
3036;SDS011;1528;52.550;13.408;2023-08-20T08:00:22;23.07;;;21.47;;
3036;SDS011;1528;52.550;13.408;2023-08-20T08:03:07;23.60;;;21.90;;
3036;SDS011;1528;52.550;13.408;2023-08-20T08:05:53;22.33;;;20.73;;
3036;SDS011;1528;52.550;13.408;2023-08-20T08:08:43;24.30;;;22.53;;
3036;SDS011;1528;52.550;13.408;2023-08-20T08:11:28;23.33;;;21.73;;
3036;SDS011;1528;52.550;13.408;2023-08-20T08:14:14;21.80;;;20.20;;
3036;SDS011;1528;52.550;13.408;2023-08-20T08:17:00;21.20;;;19.70;;
3036;SDS011;1528;52.550;13.408;2023-08-20T08:19:45;23.90;;;22.07;;
3036;SDS011;1528;52.550;13.408;2023-08-20T08:22:31;20.17;;;18.87;;
3036;SDS011;1528;52.550;13.408;2023-08-20T08:25:18;21.07;;;19.57;;
3036;SDS011;1528;52.550;13.408;2023-08-20T08:28:04;19.43;;;18.13;;
3036;SDS011;1528;52.550;13.408;2023-08-20T08:30:49;19.03;;;17.60;;
3036;SDS011;1528;52.550;13.408;2023-08-20T08:33:35;19.13;;;17.83;;
3036;SDS011;1528;52.550;13.408;2023-08-20T08:36:21;17.60;;;16.33;;
3036;SDS011;1528;52.550;13.408;2023-08-20T08:39:08;18.80;;;17.50;;
3036;SDS011;1528;52.550;13.408;2023-08-20T08:41:55;17.77;;;16.50;;
3036;SDS011;1528;52.550;13.408;2023-08-20T08:44:47;16.23;;;15.13;;
3036;SDS011;1528;52.550;13.408;2023-08-20T08:47:34;14.83;;;13.73;;
3036;SDS011;1528;52.550;13.408;2023-08-20T08:50:21;15.97;;;14.90;;
3036;SDS011;1528;52.550;13.408;2023-08-20T08:53:07;14.80;;;13.80;;
3036;SDS011;1528;52.550;13.408;2023-08-20T08:55:53;13.23;;;12.40;;
3036;SDS011;1528;52.550;13.408;2023-08-20T08:58:40;13.13;;;12.23;;
3036;SDS011;1528;52.550;13.408;2023-08-20T09:01:25;12.57;;;11.73;;
3036;SDS011;1528;52.550;13.408;2023-08-20T09:04:11;12.77;;;11.83;;
3036;SDS011;1528;52.550;13.408;2023-08-20T09:06:57;12.50;;;11.70;;
3036;SDS011;1528;52.550;13.408;2023-08-20T09:09:43;12.40;;;11.50;;
3036;SDS011;1528;52.550;13.408;2023-08-20T09:12:29;12.03;;;11.20;;
3036;SDS011;1528;52.550;13.408;2023-08-20T09:15:20;12.10;;;11.20;;
3036;SDS011;1528;52.550;13.408;2023-08-20T09:18:08;12.23;;;11.53;;
3036;SDS011;1528;52.550;13.408;2023-08-20T09:20:54;11.90;;;11.10;;
3036;SDS011;1528;52.550;13.408;2023-08-20T09:23:45;12.43;;;11.30;;
3036;SDS011;1528;52.550;13.408;2023-08-20T09:26:31;11.20;;;10.40;;
3036;SDS011;1528;52.550;13.408;2023-08-20T09:29:16;10.80;;;10.07;;
3036;SDS011;1528;52.550;13.408;2023-08-20T09:32:03;11.97;;;11.10;;
3036;SDS011;1528;52.550;13.408;2023-08-20T09:34:49;11.93;;;11.13;;
3036;SDS011;1528;52.550;13.408;2023-08-20T09:37:44;13.83;;;12.93;;
3036;SDS011;1528;52.550;13.408;2023-08-20T09:40:30;12.17;;;11.37;;
3036;SDS011;1528;52.550;13.408;2023-08-20T09:43:16;12.50;;;11.70;;
3036;SDS011;1528;52.550;13.408;2023-08-20T09:46:01;12.77;;;12.07;;
3036;SDS011;1528;52.550;13.408;2023-08-20T09:48:50;12.23;;;11.43;;
3036;SDS011;1528;52.550;13.408;2023-08-20T09:51:36;12.23;;;11.43;;
3036;SDS011;1528;52.550;13.408;2023-08-20T09:54:25;12.87;;;12.07;;
3036;SDS011;1528;52.550;13.408;2023-08-20T09:57:18;11.90;;;11.10;;
3036;SDS011;1528;52.550;13.408;2023-08-20T10:00:12;11.33;;;10.63;;
3036;SDS011;1528;52.550;13.408;2023-08-20T10:02:59;11.10;;;10.30;;
3036;SDS011;1528;52.550;13.408;2023-08-20T10:05:46;10.90;;;10.10;;
3036;SDS011;1528;52.550;13.408;2023-08-20T10:08:32;10.43;;;9.73;;
3036;SDS011;1528;52.550;13.408;2023-08-20T10:11:18;9.73;;;9.23;;
3036;SDS011;1528;52.550;13.408;2023-08-20T10:14:04;10.03;;;9.43;;
3036;SDS011;1528;52.550;13.408;2023-08-20T10:16:49;8.10;;;7.53;;
3036;SDS011;1528;52.550;13.408;2023-08-20T10:19:37;8.83;;;8.23;;
3036;SDS011;1528;52.550;13.408;2023-08-20T10:22:25;8.03;;;7.43;;
3036;SDS011;1528;52.550;13.408;2023-08-20T10:25:24;8.77;;;8.17;;
3036;SDS011;1528;52.550;13.408;2023-08-20T10:28:11;8.20;;;7.70;;
3036;SDS011;1528;52.550;13.408;2023-08-20T10:31:06;9.27;;;8.60;;
3036;SDS011;1528;52.550;13.408;2023-08-20T10:33:54;6.53;;;6.03;;
3036;SDS011;1528;52.550;13.408;2023-08-20T10:36:41;6.17;;;5.77;;
3036;SDS011;1528;52.550;13.408;2023-08-20T10:39:28;6.97;;;6.30;;
3036;SDS011;1528;52.550;13.408;2023-08-20T10:42:25;6.23;;;5.83;;
3036;SDS011;1528;52.550;13.408;2023-08-20T10:45:11;6.63;;;6.23;;
3036;SDS011;1528;52.550;13.408;2023-08-20T10:47:57;5.87;;;5.47;;
3036;SDS011;1528;52.550;13.408;2023-08-20T10:50:43;6.93;;;6.10;;
3036;SDS011;1528;52.550;13.408;2023-08-20T10:53:29;7.57;;;7.17;;
3036;SDS011;1528;52.550;13.408;2023-08-20T10:56:16;6.53;;;6.03;;
3036;SDS011;1528;52.550;13.408;2023-08-20T10:59:05;7.47;;;6.97;;
3036;SDS011;1528;52.550;13.408;2023-08-20T11:01:52;6.70;;;6.20;;
3036;SDS011;1528;52.550;13.408;2023-08-20T11:04:39;7.20;;;6.70;;
3036;SDS011;1528;52.550;13.408;2023-08-20T11:07:25;6.10;;;5.70;;
3036;SDS011;1528;52.550;13.408;2023-08-20T11:10:12;7.07;;;6.57;;
3036;SDS011;1528;52.550;13.408;2023-08-20T11:13:00;6.03;;;5.70;;
3036;SDS011;1528;52.550;13.408;2023-08-20T11:15:47;6.03;;;5.63;;
3036;SDS011;1528;52.550;13.408;2023-08-20T11:18:32;6.63;;;5.80;;
3036;SDS011;1528;52.550;13.408;2023-08-20T11:21:18;6.40;;;6.00;;
3036;SDS011;1528;52.550;13.408;2023-08-20T11:24:04;6.00;;;5.63;;
3036;SDS011;1528;52.550;13.408;2023-08-20T11:26:50;6.47;;;5.97;;
3036;SDS011;1528;52.550;13.408;2023-08-20T11:29:42;5.47;;;5.07;;
3036;SDS011;1528;52.550;13.408;2023-08-20T11:32:29;5.33;;;4.93;;
3036;SDS011;1528;52.550;13.408;2023-08-20T11:35:16;5.20;;;4.90;;
3036;SDS011;1528;52.550;13.408;2023-08-20T11:38:02;5.40;;;5.00;;
3036;SDS011;1528;52.550;13.408;2023-08-20T11:40:48;5.83;;;5.43;;
3036;SDS011;1528;52.550;13.408;2023-08-20T11:43:34;6.27;;;5.87;;
3036;SDS011;1528;52.550;13.408;2023-08-20T11:46:22;6.40;;;5.90;;
3036;SDS011;1528;52.550;13.408;2023-08-20T11:49:08;6.73;;;6.23;;
3036;SDS011;1528;52.550;13.408;2023-08-20T11:51:55;5.60;;;5.20;;
3036;SDS011;1528;52.550;13.408;2023-08-20T11:54:41;6.13;;;5.73;;
3036;SDS011;1528;52.550;13.408;2023-08-20T11:57:28;5.90;;;5.50;;
3036;SDS011;1528;52.550;13.408;2023-08-20T12:00:23;5.90;;;5.50;;
3036;SDS011;1528;52.550;13.408;2023-08-20T12:03:11;5.40;;;5.00;;
3036;SDS011;1528;52.550;13.408;2023-08-20T12:05:57;5.60;;;5.20;;
3036;SDS011;1528;52.550;13.408;2023-08-20T12:08:42;5.73;;;5.33;;
3036;SDS011;1528;52.550;13.408;2023-08-20T12:11:28;5.53;;;5.13;;
3036;SDS011;1528;52.550;13.408;2023-08-20T12:14:14;5.47;;;5.07;;
3036;SDS011;1528;52.550;13.408;2023-08-20T12:17:00;4.90;;;4.60;;
3036;SDS011;1528;52.550;13.408;2023-08-20T12:19:48;5.87;;;5.40;;
3036;SDS011;1528;52.550;13.408;2023-08-20T12:22:34;6.60;;;6.20;;
3036;SDS011;1528;52.550;13.408;2023-08-20T12:25:19;5.73;;;5.30;;
3036;SDS011;1528;52.550;13.408;2023-08-20T12:28:05;7.00;;;6.60;;
3036;SDS011;1528;52.550;13.408;2023-08-20T12:30:51;5.60;;;5.20;;
3036;SDS011;1528;52.550;13.408;2023-08-20T12:33:37;5.80;;;5.40;;
3036;SDS011;1528;52.550;13.408;2023-08-20T12:36:24;5.77;;;5.27;;
3036;SDS011;1528;52.550;13.408;2023-08-20T12:39:09;6.47;;;6.07;;
3036;SDS011;1528;52.550;13.408;2023-08-20T12:41:54;5.93;;;5.53;;
3036;SDS011;1528;52.550;13.408;2023-08-20T12:44:40;5.50;;;5.10;;
3036;SDS011;1528;52.550;13.408;2023-08-20T12:47:26;5.80;;;5.40;;
3036;SDS011;1528;52.550;13.408;2023-08-20T12:50:11;5.77;;;5.40;;
3036;SDS011;1528;52.550;13.408;2023-08-20T12:52:59;5.87;;;5.40;;
3036;SDS011;1528;52.550;13.408;2023-08-20T12:55:45;4.67;;;4.37;;
3036;SDS011;1528;52.550;13.408;2023-08-20T12:58:31;5.47;;;5.10;;
3036;SDS011;1528;52.550;13.408;2023-08-20T13:01:16;5.47;;;5.07;;
3036;SDS011;1528;52.550;13.408;2023-08-20T13:04:03;5.47;;;4.73;;
3036;SDS011;1528;52.550;13.408;2023-08-20T13:06:51;5.07;;;4.67;;
3036;SDS011;1528;52.550;13.408;2023-08-20T13:09:38;4.87;;;4.10;;
3036;SDS011;1528;52.550;13.408;2023-08-20T13:12:24;5.17;;;4.77;;
3036;SDS011;1528;52.550;13.408;2023-08-20T13:15:12;4.93;;;4.60;;
3036;SDS011;1528;52.550;13.408;2023-08-20T13:17:59;4.30;;;4.00;;
3036;SDS011;1528;52.550;13.408;2023-08-20T13:20:46;5.13;;;4.70;;
3036;SDS011;1528;52.550;13.408;2023-08-20T13:23:31;4.60;;;4.20;;
3036;SDS011;1528;52.550;13.408;2023-08-20T13:26:18;5.00;;;4.47;;
3036;SDS011;1528;52.550;13.408;2023-08-20T13:29:05;4.63;;;4.33;;
3036;SDS011;1528;52.550;13.408;2023-08-20T13:31:51;6.97;;;6.50;;
3036;SDS011;1528;52.550;13.408;2023-08-20T13:34:36;6.63;;;4.33;;
3036;SDS011;1528;52.550;13.408;2023-08-20T13:37:22;4.30;;;3.90;;
3036;SDS011;1528;52.550;13.408;2023-08-20T13:40:08;6.87;;;5.17;;
3036;SDS011;1528;52.550;13.408;2023-08-20T13:42:56;5.40;;;5.00;;
3036;SDS011;1528;52.550;13.408;2023-08-20T13:45:41;5.30;;;4.90;;
3036;SDS011;1528;52.550;13.408;2023-08-20T13:48:27;5.23;;;4.83;;
3036;SDS011;1528;52.550;13.408;2023-08-20T13:51:12;4.77;;;4.37;;
3036;SDS011;1528;52.550;13.408;2023-08-20T13:53:59;4.97;;;4.40;;
3036;SDS011;1528;52.550;13.408;2023-08-20T13:56:44;4.97;;;4.57;;
3036;SDS011;1528;52.550;13.408;2023-08-20T13:59:31;4.50;;;4.10;;
3036;SDS011;1528;52.550;13.408;2023-08-20T14:02:17;5.63;;;5.33;;
3036;SDS011;1528;52.550;13.408;2023-08-20T14:05:03;4.90;;;4.60;;
3036;SDS011;1528;52.550;13.408;2023-08-20T14:07:50;5.03;;;4.63;;
3036;SDS011;1528;52.550;13.408;2023-08-20T14:10:36;4.70;;;4.30;;
3036;SDS011;1528;52.550;13.408;2023-08-20T14:13:21;4.33;;;4.03;;
3036;SDS011;1528;52.550;13.408;2023-08-20T14:16:08;4.80;;;4.43;;
3036;SDS011;1528;52.550;13.408;2023-08-20T14:18:54;3.50;;;3.20;;
3036;SDS011;1528;52.550;13.408;2023-08-20T14:21:39;5.17;;;4.77;;
3036;SDS011;1528;52.550;13.408;2023-08-20T14:24:25;4.37;;;4.10;;
3036;SDS011;1528;52.550;13.408;2023-08-20T14:27:11;4.20;;;3.90;;
3036;SDS011;1528;52.550;13.408;2023-08-20T14:29:56;12.73;;;4.80;;
3036;SDS011;1528;52.550;13.408;2023-08-20T14:32:43;4.90;;;4.47;;
3036;SDS011;1528;52.550;13.408;2023-08-20T14:35:29;4.30;;;3.90;;
3036;SDS011;1528;52.550;13.408;2023-08-20T14:38:15;4.27;;;3.87;;
3036;SDS011;1528;52.550;13.408;2023-08-20T14:41:00;4.93;;;4.27;;
3036;SDS011;1528;52.550;13.408;2023-08-20T14:43:47;3.50;;;3.30;;
3036;SDS011;1528;52.550;13.408;2023-08-20T14:46:32;4.63;;;4.23;;
3036;SDS011;1528;52.550;13.408;2023-08-20T14:49:19;4.50;;;4.10;;
3036;SDS011;1528;52.550;13.408;2023-08-20T14:52:05;4.53;;;3.90;;
3036;SDS011;1528;52.550;13.408;2023-08-20T14:54:51;5.17;;;4.77;;
3036;SDS011;1528;52.550;13.408;2023-08-20T14:57:37;6.33;;;5.83;;
3036;SDS011;1528;52.550;13.408;2023-08-20T15:00:22;6.10;;;5.70;;
3036;SDS011;1528;52.550;13.408;2023-08-20T15:03:08;4.90;;;4.40;;
3036;SDS011;1528;52.550;13.408;2023-08-20T15:05:55;5.33;;;4.93;;
3036;SDS011;1528;52.550;13.408;2023-08-20T15:08:41;5.77;;;4.00;;
3036;SDS011;1528;52.550;13.408;2023-08-20T15:11:27;5.50;;;4.30;;
3036;SDS011;1528;52.550;13.408;2023-08-20T15:14:13;4.90;;;4.20;;
3036;SDS011;1528;52.550;13.408;2023-08-20T15:16:58;4.10;;;3.80;;
3036;SDS011;1528;52.550;13.408;2023-08-20T15:19:49;5.03;;;4.53;;
3036;SDS011;1528;52.550;13.408;2023-08-20T15:22:37;5.50;;;5.00;;
3036;SDS011;1528;52.550;13.408;2023-08-20T15:25:22;5.00;;;4.60;;
3036;SDS011;1528;52.550;13.408;2023-08-20T15:28:08;5.10;;;4.80;;
3036;SDS011;1528;52.550;13.408;2023-08-20T15:30:54;5.10;;;4.60;;
3036;SDS011;1528;52.550;13.408;2023-08-20T15:33:39;4.60;;;4.30;;
3036;SDS011;1528;52.550;13.408;2023-08-20T15:36:25;5.00;;;4.43;;
3036;SDS011;1528;52.550;13.408;2023-08-20T15:39:12;5.67;;;4.57;;
3036;SDS011;1528;52.550;13.408;2023-08-20T15:41:58;6.40;;;4.60;;
3036;SDS011;1528;52.550;13.408;2023-08-20T15:44:44;4.20;;;3.90;;
3036;SDS011;1528;52.550;13.408;2023-08-20T15:47:31;5.47;;;5.07;;
3036;SDS011;1528;52.550;13.408;2023-08-20T15:50:17;5.67;;;4.80;;
3036;SDS011;1528;52.550;13.408;2023-08-20T15:53:02;12.50;;;11.30;;
3036;SDS011;1528;52.550;13.408;2023-08-20T15:55:49;5.47;;;4.97;;
3036;SDS011;1528;52.550;13.408;2023-08-20T15:58:34;6.07;;;5.47;;
3036;SDS011;1528;52.550;13.408;2023-08-20T16:01:20;6.20;;;5.70;;
3036;SDS011;1528;52.550;13.408;2023-08-20T16:04:05;5.00;;;4.60;;
3036;SDS011;1528;52.550;13.408;2023-08-20T16:06:51;4.50;;;4.20;;
3036;SDS011;1528;52.550;13.408;2023-08-20T16:09:37;5.90;;;4.20;;
3036;SDS011;1528;52.550;13.408;2023-08-20T16:12:24;5.10;;;4.80;;
3036;SDS011;1528;52.550;13.408;2023-08-20T16:15:09;6.20;;;4.80;;
3036;SDS011;1528;52.550;13.408;2023-08-20T16:17:56;6.50;;;4.03;;
3036;SDS011;1528;52.550;13.408;2023-08-20T16:20:41;4.60;;;4.30;;
3036;SDS011;1528;52.550;13.408;2023-08-20T16:23:27;4.00;;;3.70;;
3036;SDS011;1528;52.550;13.408;2023-08-20T16:26:12;4.70;;;4.23;;
3036;SDS011;1528;52.550;13.408;2023-08-20T16:28:59;4.77;;;4.37;;
3036;SDS011;1528;52.550;13.408;2023-08-20T16:31:45;6.10;;;4.97;;
3036;SDS011;1528;52.550;13.408;2023-08-20T16:34:30;6.20;;;5.73;;
3036;SDS011;1528;52.550;13.408;2023-08-20T16:37:16;6.63;;;4.37;;
3036;SDS011;1528;52.550;13.408;2023-08-20T16:40:01;4.93;;;4.30;;